sensor_id;sensor_type;location;lat;lon;timestamp;P1;durP1;ratioP1;P2;durP2;ratioP2
75437;SDS011;64015;49.392;15.582;2022-10-15T00:02:14;54.97;;;20.77;;
75437;SDS011;64015;49.392;15.582;2022-10-15T00:04:41;52.80;;;19.90;;
75437;SDS011;64015;49.392;15.582;2022-10-15T00:07:06;58.92;;;20.25;;
75437;SDS011;64015;49.392;15.582;2022-10-15T00:09:31;53.90;;;20.90;;
75437;SDS011;64015;49.392;15.582;2022-10-15T00:11:57;53.00;;;19.23;;
75437;SDS011;64015;49.392;15.582;2022-10-15T00:14:22;53.45;;;19.65;;
75437;SDS011;64015;49.392;15.582;2022-10-15T00:16:48;56.92;;;20.52;;
75437;SDS011;64015;49.392;15.582;2022-10-15T00:19:13;51.55;;;20.20;;
75437;SDS011;64015;49.392;15.582;2022-10-15T00:21:39;45.92;;;18.10;;
75437;SDS011;64015;49.392;15.582;2022-10-15T00:24:05;48.17;;;18.75;;
75437;SDS011;64015;49.392;15.582;2022-10-15T00:26:31;46.50;;;18.80;;
75437;SDS011;64015;49.392;15.582;2022-10-15T00:28:57;49.00;;;18.50;;
75437;SDS011;64015;49.392;15.582;2022-10-15T00:31:25;45.65;;;19.30;;
75437;SDS011;64015;49.392;15.582;2022-10-15T00:33:53;46.33;;;17.70;;
75437;SDS011;64015;49.392;15.582;2022-10-15T00:36:21;47.90;;;18.83;;
75437;SDS011;64015;49.392;15.582;2022-10-15T00:38:49;44.33;;;16.98;;
75437;SDS011;64015;49.392;15.582;2022-10-15T00:41:16;42.53;;;17.27;;
75437;SDS011;64015;49.392;15.582;2022-10-15T00:43:51;42.58;;;17.25;;
75437;SDS011;64015;49.392;15.582;2022-10-15T00:46:23;46.03;;;18.13;;
75437;SDS011;64015;49.392;15.582;2022-10-15T00:48:57;51.40;;;18.48;;
75437;SDS011;64015;49.392;15.582;2022-10-15T00:51:43;51.95;;;19.60;;
75437;SDS011;64015;49.392;15.582;2022-10-15T00:54:17;45.95;;;17.88;;
75437;SDS011;64015;49.392;15.582;2022-10-15T00:56:43;46.83;;;18.30;;
75437;SDS011;64015;49.392;15.582;2022-10-15T00:59:11;46.35;;;18.23;;
75437;SDS011;64015;49.392;15.582;2022-10-15T01:01:38;46.50;;;19.13;;
75437;SDS011;64015;49.392;15.582;2022-10-15T01:04:04;50.35;;;19.10;;
75437;SDS011;64015;49.392;15.582;2022-10-15T01:06:32;46.72;;;18.90;;
75437;SDS011;64015;49.392;15.582;2022-10-15T01:08:58;49.17;;;18.25;;
75437;SDS011;64015;49.392;15.582;2022-10-15T01:28:21;38.70;;;16.33;;
75437;SDS011;64015;49.392;15.582;2022-10-15T01:31:05;39.30;;;16.15;;
75437;SDS011;64015;49.392;15.582;2022-10-15T01:33:47;43.90;;;17.38;;
75437;SDS011;64015;49.392;15.582;2022-10-15T01:36:31;38.55;;;16.25;;
75437;SDS011;64015;49.392;15.582;2022-10-15T01:39:12;35.63;;;16.67;;
75437;SDS011;64015;49.392;15.582;2022-10-15T01:41:46;32.47;;;14.55;;
75437;SDS011;64015;49.392;15.582;2022-10-15T01:44:17;39.85;;;17.92;;
75437;SDS011;64015;49.392;15.582;2022-10-15T01:47:03;40.67;;;16.77;;
75437;SDS011;64015;49.392;15.582;2022-10-15T01:49:32;36.83;;;15.80;;
75437;SDS011;64015;49.392;15.582;2022-10-15T01:52:05;36.80;;;15.95;;
75437;SDS011;64015;49.392;15.582;2022-10-15T01:54:34;36.10;;;16.38;;
75437;SDS011;64015;49.392;15.582;2022-10-15T01:57:00;36.80;;;16.83;;
75437;SDS011;64015;49.392;15.582;2022-10-15T01:59:29;40.30;;;16.52;;
75437;SDS011;64015;49.392;15.582;2022-10-15T02:01:56;41.53;;;17.15;;
75437;SDS011;64015;49.392;15.582;2022-10-15T02:04:24;36.50;;;15.95;;
75437;SDS011;64015;49.392;15.582;2022-10-15T02:06:57;40.17;;;16.63;;
75437;SDS011;64015;49.392;15.582;2022-10-15T02:09:45;39.67;;;14.88;;
75437;SDS011;64015;49.392;15.582;2022-10-15T02:15:16;38.63;;;15.18;;
75437;SDS011;64015;49.392;15.582;2022-10-15T02:18:00;38.55;;;16.10;;
75437;SDS011;64015;49.392;15.582;2022-10-15T02:20:33;37.90;;;15.93;;
75437;SDS011;64015;49.392;15.582;2022-10-15T02:23:14;40.22;;;16.30;;
75437;SDS011;64015;49.392;15.582;2022-10-15T02:25:47;38.28;;;16.90;;
75437;SDS011;64015;49.392;15.582;2022-10-15T02:28:16;39.80;;;16.92;;
75437;SDS011;64015;49.392;15.582;2022-10-15T02:30:43;38.58;;;16.27;;
75437;SDS011;64015;49.392;15.582;2022-10-15T02:33:12;37.55;;;15.68;;
75437;SDS011;64015;49.392;15.582;2022-10-15T02:35:41;38.35;;;16.42;;
75437;SDS011;64015;49.392;15.582;2022-10-15T02:38:07;38.20;;;15.75;;
75437;SDS011;64015;49.392;15.582;2022-10-15T02:40:36;42.33;;;16.42;;
75437;SDS011;64015;49.392;15.582;2022-10-15T02:43:04;37.33;;;15.95;;
75437;SDS011;64015;49.392;15.582;2022-10-15T02:45:31;37.13;;;15.07;;
75437;SDS011;64015;49.392;15.582;2022-10-15T02:47:56;37.88;;;15.73;;
75437;SDS011;64015;49.392;15.582;2022-10-15T02:50:22;38.95;;;16.15;;
75437;SDS011;64015;49.392;15.582;2022-10-15T02:52:47;33.55;;;15.27;;
75437;SDS011;64015;49.392;15.582;2022-10-15T02:55:13;35.30;;;15.70;;
75437;SDS011;64015;49.392;15.582;2022-10-15T02:57:39;38.95;;;17.20;;
75437;SDS011;64015;49.392;15.582;2022-10-15T03:00:04;35.38;;;15.93;;
75437;SDS011;64015;49.392;15.582;2022-10-15T03:02:30;36.17;;;16.77;;
75437;SDS011;64015;49.392;15.582;2022-10-15T03:04:57;37.38;;;16.23;;
75437;SDS011;64015;49.392;15.582;2022-10-15T03:07:23;35.53;;;15.25;;
75437;SDS011;64015;49.392;15.582;2022-10-15T03:09:48;33.53;;;16.13;;
75437;SDS011;64015;49.392;15.582;2022-10-15T03:12:13;33.38;;;15.02;;
75437;SDS011;64015;49.392;15.582;2022-10-15T03:14:39;32.95;;;14.65;;
75437;SDS011;64015;49.392;15.582;2022-10-15T03:17:05;37.80;;;14.38;;
75437;SDS011;64015;49.392;15.582;2022-10-15T03:19:30;32.92;;;15.02;;
75437;SDS011;64015;49.392;15.582;2022-10-15T03:21:55;35.90;;;16.30;;
75437;SDS011;64015;49.392;15.582;2022-10-15T03:24:21;34.28;;;14.35;;
75437;SDS011;64015;49.392;15.582;2022-10-15T03:26:46;30.10;;;13.95;;
75437;SDS011;64015;49.392;15.582;2022-10-15T03:29:12;33.88;;;15.20;;
75437;SDS011;64015;49.392;15.582;2022-10-15T03:31:37;31.80;;;13.82;;
75437;SDS011;64015;49.392;15.582;2022-10-15T03:34:03;31.73;;;14.48;;
75437;SDS011;64015;49.392;15.582;2022-10-15T03:36:28;30.02;;;13.82;;
75437;SDS011;64015;49.392;15.582;2022-10-15T03:38:54;32.30;;;14.52;;
75437;SDS011;64015;49.392;15.582;2022-10-15T03:41:19;32.85;;;14.80;;
75437;SDS011;64015;49.392;15.582;2022-10-15T03:43:44;32.67;;;14.48;;
75437;SDS011;64015;49.392;15.582;2022-10-15T03:46:10;33.35;;;14.75;;
75437;SDS011;64015;49.392;15.582;2022-10-15T03:48:35;31.70;;;14.95;;
75437;SDS011;64015;49.392;15.582;2022-10-15T03:51:01;30.75;;;14.38;;
75437;SDS011;64015;49.392;15.582;2022-10-15T03:53:26;35.88;;;14.73;;
75437;SDS011;64015;49.392;15.582;2022-10-15T03:55:52;32.60;;;15.95;;
75437;SDS011;64015;49.392;15.582;2022-10-15T03:58:17;33.58;;;15.07;;
75437;SDS011;64015;49.392;15.582;2022-10-15T04:00:45;32.95;;;14.30;;
75437;SDS011;64015;49.392;15.582;2022-10-15T04:03:11;34.13;;;13.77;;
75437;SDS011;64015;49.392;15.582;2022-10-15T04:05:36;30.08;;;14.00;;
75437;SDS011;64015;49.392;15.582;2022-10-15T04:08:02;31.95;;;14.38;;
75437;SDS011;64015;49.392;15.582;2022-10-15T04:10:29;30.27;;;13.80;;
75437;SDS011;64015;49.392;15.582;2022-10-15T04:12:54;30.52;;;13.55;;
75437;SDS011;64015;49.392;15.582;2022-10-15T04:15:20;30.15;;;13.98;;
75437;SDS011;64015;49.392;15.582;2022-10-15T04:17:46;35.50;;;14.27;;
75437;SDS011;64015;49.392;15.582;2022-10-15T04:20:11;29.85;;;14.88;;
75437;SDS011;64015;49.392;15.582;2022-10-15T04:22:37;29.85;;;14.38;;
75437;SDS011;64015;49.392;15.582;2022-10-15T04:25:02;29.83;;;13.63;;
75437;SDS011;64015;49.392;15.582;2022-10-15T04:27:30;30.23;;;14.57;;
75437;SDS011;64015;49.392;15.582;2022-10-15T04:29:55;31.55;;;14.18;;
75437;SDS011;64015;49.392;15.582;2022-10-15T04:32:21;28.00;;;13.85;;
75437;SDS011;64015;49.392;15.582;2022-10-15T04:34:46;31.88;;;15.63;;
75437;SDS011;64015;49.392;15.582;2022-10-15T04:37:12;31.08;;;13.68;;
75437;SDS011;64015;49.392;15.582;2022-10-15T04:39:38;29.20;;;13.70;;
75437;SDS011;64015;49.392;15.582;2022-10-15T04:42:03;31.25;;;15.43;;
75437;SDS011;64015;49.392;15.582;2022-10-15T04:44:29;30.45;;;14.27;;
75437;SDS011;64015;49.392;15.582;2022-10-15T04:46:54;31.35;;;13.82;;
75437;SDS011;64015;49.392;15.582;2022-10-15T04:49:20;34.90;;;14.65;;
75437;SDS011;64015;49.392;15.582;2022-10-15T04:51:46;33.03;;;14.02;;
75437;SDS011;64015;49.392;15.582;2022-10-15T04:54:12;30.73;;;14.38;;
75437;SDS011;64015;49.392;15.582;2022-10-15T04:56:37;32.70;;;14.52;;
75437;SDS011;64015;49.392;15.582;2022-10-15T04:59:05;34.85;;;14.77;;
75437;SDS011;64015;49.392;15.582;2022-10-15T05:01:32;32.05;;;14.52;;
75437;SDS011;64015;49.392;15.582;2022-10-15T05:03:57;33.50;;;14.30;;
75437;SDS011;64015;49.392;15.582;2022-10-15T05:06:23;30.65;;;13.70;;
75437;SDS011;64015;49.392;15.582;2022-10-15T05:08:48;30.85;;;13.15;;
75437;SDS011;64015;49.392;15.582;2022-10-15T05:11:16;30.52;;;13.02;;
75437;SDS011;64015;49.392;15.582;2022-10-15T05:13:43;24.80;;;11.07;;
75437;SDS011;64015;49.392;15.582;2022-10-15T05:16:19;30.05;;;13.43;;
75437;SDS011;64015;49.392;15.582;2022-10-15T05:18:47;28.02;;;12.75;;
75437;SDS011;64015;49.392;15.582;2022-10-15T05:21:14;26.27;;;12.57;;
75437;SDS011;64015;49.392;15.582;2022-10-15T05:23:41;27.67;;;12.27;;
75437;SDS011;64015;49.392;15.582;2022-10-15T05:26:12;22.85;;;11.00;;
75437;SDS011;64015;49.392;15.582;2022-10-15T05:28:39;28.13;;;13.32;;
75437;SDS011;64015;49.392;15.582;2022-10-15T05:31:05;19.08;;;10.52;;
75437;SDS011;64015;49.392;15.582;2022-10-15T05:33:31;20.17;;;10.05;;
75437;SDS011;64015;49.392;15.582;2022-10-15T05:36:06;19.75;;;10.52;;
75437;SDS011;64015;49.392;15.582;2022-10-15T05:38:43;22.27;;;10.38;;
75437;SDS011;64015;49.392;15.582;2022-10-15T05:41:09;22.17;;;10.32;;
75437;SDS011;64015;49.392;15.582;2022-10-15T05:43:34;19.25;;;9.82;;
75437;SDS011;64015;49.392;15.582;2022-10-15T05:46:00;23.58;;;11.48;;
75437;SDS011;64015;49.392;15.582;2022-10-15T05:48:25;23.05;;;11.27;;
75437;SDS011;64015;49.392;15.582;2022-10-15T05:50:51;23.85;;;11.32;;
75437;SDS011;64015;49.392;15.582;2022-10-15T05:53:17;21.35;;;10.43;;
75437;SDS011;64015;49.392;15.582;2022-10-15T05:55:42;21.35;;;11.30;;
75437;SDS011;64015;49.392;15.582;2022-10-15T05:58:07;21.45;;;11.07;;
75437;SDS011;64015;49.392;15.582;2022-10-15T06:00:33;23.15;;;10.43;;
75437;SDS011;64015;49.392;15.582;2022-10-15T06:02:59;24.13;;;11.05;;
75437;SDS011;64015;49.392;15.582;2022-10-15T06:05:27;20.08;;;10.75;;
75437;SDS011;64015;49.392;15.582;2022-10-15T06:07:53;22.33;;;11.40;;
75437;SDS011;64015;49.392;15.582;2022-10-15T06:10:18;25.45;;;12.68;;
75437;SDS011;64015;49.392;15.582;2022-10-15T06:12:47;23.17;;;11.75;;
75437;SDS011;64015;49.392;15.582;2022-10-15T06:15:15;23.75;;;11.10;;
75437;SDS011;64015;49.392;15.582;2022-10-15T06:17:40;22.95;;;12.15;;
75437;SDS011;64015;49.392;15.582;2022-10-15T06:20:06;24.48;;;11.90;;
75437;SDS011;64015;49.392;15.582;2022-10-15T06:22:32;24.33;;;11.55;;
75437;SDS011;64015;49.392;15.582;2022-10-15T06:24:58;23.90;;;12.65;;
75437;SDS011;64015;49.392;15.582;2022-10-15T06:27:23;25.65;;;12.07;;
75437;SDS011;64015;49.392;15.582;2022-10-15T06:29:49;22.23;;;11.95;;
75437;SDS011;64015;49.392;15.582;2022-10-15T06:32:14;20.95;;;10.98;;
75437;SDS011;64015;49.392;15.582;2022-10-15T06:34:40;22.73;;;11.95;;
75437;SDS011;64015;49.392;15.582;2022-10-15T06:37:05;24.27;;;12.95;;
75437;SDS011;64015;49.392;15.582;2022-10-15T06:39:31;22.05;;;11.82;;
75437;SDS011;64015;49.392;15.582;2022-10-15T06:42:00;26.13;;;11.98;;
75437;SDS011;64015;49.392;15.582;2022-10-15T06:44:25;22.80;;;11.50;;
75437;SDS011;64015;49.392;15.582;2022-10-15T06:46:51;26.92;;;12.77;;
75437;SDS011;64015;49.392;15.582;2022-10-15T06:49:16;23.52;;;12.07;;
75437;SDS011;64015;49.392;15.582;2022-10-15T06:51:42;25.90;;;13.02;;
75437;SDS011;64015;49.392;15.582;2022-10-15T06:54:07;22.65;;;12.15;;
75437;SDS011;64015;49.392;15.582;2022-10-15T06:56:33;25.52;;;12.00;;
75437;SDS011;64015;49.392;15.582;2022-10-15T06:58:58;25.75;;;12.07;;
75437;SDS011;64015;49.392;15.582;2022-10-15T07:01:24;24.20;;;12.48;;
75437;SDS011;64015;49.392;15.582;2022-10-15T07:03:49;26.15;;;11.88;;
75437;SDS011;64015;49.392;15.582;2022-10-15T07:06:16;23.50;;;12.48;;
75437;SDS011;64015;49.392;15.582;2022-10-15T07:08:42;22.38;;;11.95;;
75437;SDS011;64015;49.392;15.582;2022-10-15T07:13:34;24.98;;;11.93;;
75437;SDS011;64015;49.392;15.582;2022-10-15T07:16:07;23.42;;;12.32;;
75437;SDS011;64015;49.392;15.582;2022-10-15T07:18:34;24.13;;;12.82;;
75437;SDS011;64015;49.392;15.582;2022-10-15T07:21:04;24.90;;;13.18;;
75437;SDS011;64015;49.392;15.582;2022-10-15T07:23:31;24.98;;;12.00;;
75437;SDS011;64015;49.392;15.582;2022-10-15T07:25:57;26.02;;;13.32;;
75437;SDS011;64015;49.392;15.582;2022-10-15T07:28:23;26.27;;;13.07;;
75437;SDS011;64015;49.392;15.582;2022-10-15T07:30:49;24.38;;;13.68;;
75437;SDS011;64015;49.392;15.582;2022-10-15T07:33:14;24.17;;;13.18;;
75437;SDS011;64015;49.392;15.582;2022-10-15T07:35:40;24.02;;;12.30;;
75437;SDS011;64015;49.392;15.582;2022-10-15T07:38:05;28.13;;;13.63;;
75437;SDS011;64015;49.392;15.582;2022-10-15T07:40:31;24.58;;;13.13;;
75437;SDS011;64015;49.392;15.582;2022-10-15T07:42:57;23.02;;;13.07;;
75437;SDS011;64015;49.392;15.582;2022-10-15T07:47:50;27.15;;;14.10;;
75437;SDS011;64015;49.392;15.582;2022-10-15T07:50:16;28.55;;;15.05;;
75437;SDS011;64015;49.392;15.582;2022-10-15T07:52:42;27.17;;;14.98;;
75437;SDS011;64015;49.392;15.582;2022-10-15T07:55:08;31.05;;;15.30;;
75437;SDS011;64015;49.392;15.582;2022-10-15T07:57:34;29.73;;;15.52;;
75437;SDS011;64015;49.392;15.582;2022-10-15T07:59:59;29.88;;;15.60;;
75437;SDS011;64015;49.392;15.582;2022-10-15T08:02:25;29.65;;;14.50;;
75437;SDS011;64015;49.392;15.582;2022-10-15T08:04:50;31.58;;;15.75;;
75437;SDS011;64015;49.392;15.582;2022-10-15T08:07:16;30.55;;;15.00;;
75437;SDS011;64015;49.392;15.582;2022-10-15T08:09:43;30.88;;;15.40;;
75437;SDS011;64015;49.392;15.582;2022-10-15T08:12:09;33.38;;;16.02;;
75437;SDS011;64015;49.392;15.582;2022-10-15T08:14:35;30.23;;;15.23;;
75437;SDS011;64015;49.392;15.582;2022-10-15T08:17:04;28.90;;;14.48;;
75437;SDS011;64015;49.392;15.582;2022-10-15T08:19:30;31.35;;;15.65;;
75437;SDS011;64015;49.392;15.582;2022-10-15T08:22:00;30.20;;;14.65;;
75437;SDS011;64015;49.392;15.582;2022-10-15T08:24:25;30.77;;;15.80;;
75437;SDS011;64015;49.392;15.582;2022-10-15T08:26:51;31.52;;;15.63;;
75437;SDS011;64015;49.392;15.582;2022-10-15T08:29:16;31.33;;;15.75;;
75437;SDS011;64015;49.392;15.582;2022-10-15T08:31:42;34.55;;;17.10;;
75437;SDS011;64015;49.392;15.582;2022-10-15T08:34:07;36.00;;;16.67;;
75437;SDS011;64015;49.392;15.582;2022-10-15T08:36:33;29.30;;;15.40;;
75437;SDS011;64015;49.392;15.582;2022-10-15T08:38:59;34.05;;;16.13;;
75437;SDS011;64015;49.392;15.582;2022-10-15T08:41:29;32.58;;;17.05;;
75437;SDS011;64015;49.392;15.582;2022-10-15T08:43:59;27.60;;;15.18;;
75437;SDS011;64015;49.392;15.582;2022-10-15T08:46:34;32.42;;;16.08;;
75437;SDS011;64015;49.392;15.582;2022-10-15T08:49:04;37.60;;;17.83;;
75437;SDS011;64015;49.392;15.582;2022-10-15T08:51:53;37.13;;;17.95;;
75437;SDS011;64015;49.392;15.582;2022-10-15T08:54:23;31.98;;;16.70;;
75437;SDS011;64015;49.392;15.582;2022-10-15T08:57:00;36.97;;;17.27;;
75437;SDS011;64015;49.392;15.582;2022-10-15T08:59:54;42.40;;;18.27;;
75437;SDS011;64015;49.392;15.582;2022-10-15T09:02:29;37.95;;;17.80;;
75437;SDS011;64015;49.392;15.582;2022-10-15T09:11:14;40.00;;;19.80;;
75437;SDS011;64015;49.392;15.582;2022-10-15T09:13:47;36.05;;;18.25;;
75437;SDS011;64015;49.392;15.582;2022-10-15T09:16:30;42.10;;;18.35;;
75437;SDS011;64015;49.392;15.582;2022-10-15T09:19:00;33.67;;;17.02;;
75437;SDS011;64015;49.392;15.582;2022-10-15T09:21:28;38.50;;;18.88;;
75437;SDS011;64015;49.392;15.582;2022-10-15T09:24:03;36.45;;;19.33;;
75437;SDS011;64015;49.392;15.582;2022-10-15T09:26:32;33.28;;;18.00;;
75437;SDS011;64015;49.392;15.582;2022-10-15T09:32:24;33.72;;;17.67;;
75437;SDS011;64015;49.392;15.582;2022-10-15T09:34:58;34.92;;;16.70;;
75437;SDS011;64015;49.392;15.582;2022-10-15T09:37:30;36.67;;;18.60;;
75437;SDS011;64015;49.392;15.582;2022-10-15T09:42:46;38.70;;;20.27;;
75437;SDS011;64015;49.392;15.582;2022-10-15T09:45:15;36.45;;;19.65;;
75437;SDS011;64015;49.392;15.582;2022-10-15T09:47:42;37.42;;;19.67;;
75437;SDS011;64015;49.392;15.582;2022-10-15T09:50:09;36.00;;;18.27;;
75437;SDS011;64015;49.392;15.582;2022-10-15T09:52:57;37.45;;;17.27;;
75437;SDS011;64015;49.392;15.582;2022-10-15T09:58:07;32.42;;;16.63;;
75437;SDS011;64015;49.392;15.582;2022-10-15T10:00:51;32.63;;;17.00;;
75437;SDS011;64015;49.392;15.582;2022-10-15T10:03:21;28.90;;;14.93;;
75437;SDS011;64015;49.392;15.582;2022-10-15T10:05:48;28.90;;;15.65;;
75437;SDS011;64015;49.392;15.582;2022-10-15T10:10:40;23.05;;;12.40;;
75437;SDS011;64015;49.392;15.582;2022-10-15T10:13:19;29.88;;;15.30;;
75437;SDS011;64015;49.392;15.582;2022-10-15T10:15:53;27.02;;;14.15;;
75437;SDS011;64015;49.392;15.582;2022-10-15T10:18:21;26.65;;;13.73;;
75437;SDS011;64015;49.392;15.582;2022-10-15T10:20:53;24.65;;;14.02;;
75437;SDS011;64015;49.392;15.582;2022-10-15T10:23:24;27.17;;;13.60;;
75437;SDS011;64015;49.392;15.582;2022-10-15T10:25:57;27.70;;;15.30;;
75437;SDS011;64015;49.392;15.582;2022-10-15T10:34:05;26.80;;;13.87;;
75437;SDS011;64015;49.392;15.582;2022-10-15T10:36:06;26.08;;;14.93;;
75437;SDS011;64015;49.392;15.582;2022-10-15T10:38:42;23.35;;;13.30;;
75437;SDS011;64015;49.392;15.582;2022-10-15T10:41:20;21.75;;;11.48;;
75437;SDS011;64015;49.392;15.582;2022-10-15T10:43:52;25.70;;;13.88;;
75437;SDS011;64015;49.392;15.582;2022-10-15T10:46:21;26.40;;;13.95;;
75437;SDS011;64015;49.392;15.582;2022-10-15T10:48:49;25.40;;;13.60;;
75437;SDS011;64015;49.392;15.582;2022-10-15T10:51:17;22.95;;;12.40;;
75437;SDS011;64015;49.392;15.582;2022-10-15T10:56:32;27.30;;;14.95;;
75437;SDS011;64015;49.392;15.582;2022-10-15T10:59:11;23.73;;;13.45;;
75437;SDS011;64015;49.392;15.582;2022-10-15T11:01:41;21.55;;;11.80;;
75437;SDS011;64015;49.392;15.582;2022-10-15T11:04:11;23.90;;;13.63;;
75437;SDS011;64015;49.392;15.582;2022-10-15T11:20:54;27.77;;;14.75;;
75437;SDS011;64015;49.392;15.582;2022-10-15T11:24:02;26.92;;;13.70;;
75437;SDS011;64015;49.392;15.582;2022-10-15T11:32:19;25.13;;;14.05;;
75437;SDS011;64015;49.392;15.582;2022-10-15T11:37:30;28.45;;;15.40;;
75437;SDS011;64015;49.392;15.582;2022-10-15T11:40:14;25.38;;;14.57;;
75437;SDS011;64015;49.392;15.582;2022-10-15T11:45:51;25.20;;;12.95;;
75437;SDS011;64015;49.392;15.582;2022-10-15T11:48:42;23.65;;;12.57;;
75437;SDS011;64015;49.392;15.582;2022-10-15T11:57:16;28.52;;;15.80;;
75437;SDS011;64015;49.392;15.582;2022-10-15T11:59:49;27.67;;;15.18;;
75437;SDS011;64015;49.392;15.582;2022-10-15T12:02:21;27.92;;;13.95;;
75437;SDS011;64015;49.392;15.582;2022-10-15T12:05:01;27.92;;;14.68;;
75437;SDS011;64015;49.392;15.582;2022-10-15T12:07:42;27.85;;;13.57;;
75437;SDS011;64015;49.392;15.582;2022-10-15T12:27:20;27.83;;;14.68;;
75437;SDS011;64015;49.392;15.582;2022-10-15T12:32:35;28.20;;;14.07;;
75437;SDS011;64015;49.392;15.582;2022-10-15T12:35:04;27.30;;;13.18;;
75437;SDS011;64015;49.392;15.582;2022-10-15T12:37:42;26.27;;;12.85;;
75437;SDS011;64015;49.392;15.582;2022-10-15T12:40:24;26.42;;;14.68;;
75437;SDS011;64015;49.392;15.582;2022-10-15T12:42:56;22.35;;;12.35;;
75437;SDS011;64015;49.392;15.582;2022-10-15T12:53:45;24.05;;;13.43;;
75437;SDS011;64015;49.392;15.582;2022-10-15T12:58:45;25.00;;;12.93;;
75437;SDS011;64015;49.392;15.582;2022-10-15T13:08:51;25.10;;;13.63;;
75437;SDS011;64015;49.392;15.582;2022-10-15T13:11:18;25.45;;;13.38;;
75437;SDS011;64015;49.392;15.582;2022-10-15T13:13:48;29.27;;;13.95;;
75437;SDS011;64015;49.392;15.582;2022-10-15T13:16:18;30.40;;;13.90;;
75437;SDS011;64015;49.392;15.582;2022-10-15T13:18:50;29.63;;;14.25;;
75437;SDS011;64015;49.392;15.582;2022-10-15T13:21:17;27.40;;;14.50;;
75437;SDS011;64015;49.392;15.582;2022-10-15T13:23:46;27.65;;;14.73;;
75437;SDS011;64015;49.392;15.582;2022-10-15T13:26:19;27.45;;;14.73;;
75437;SDS011;64015;49.392;15.582;2022-10-15T13:28:47;32.47;;;15.65;;
75437;SDS011;64015;49.392;15.582;2022-10-15T13:33:52;29.55;;;16.13;;
75437;SDS011;64015;49.392;15.582;2022-10-15T13:36:23;31.80;;;16.30;;
75437;SDS011;64015;49.392;15.582;2022-10-15T13:39:16;34.13;;;16.38;;
75437;SDS011;64015;49.392;15.582;2022-10-15T13:42:13;34.58;;;16.60;;
75437;SDS011;64015;49.392;15.582;2022-10-15T13:44:41;34.03;;;16.55;;
75437;SDS011;64015;49.392;15.582;2022-10-15T13:50:08;31.83;;;17.52;;
75437;SDS011;64015;49.392;15.582;2022-10-15T13:52:57;32.90;;;15.80;;
75437;SDS011;64015;49.392;15.582;2022-10-15T13:55:39;31.08;;;16.60;;
75437;SDS011;64015;49.392;15.582;2022-10-15T14:00:50;31.05;;;15.73;;
75437;SDS011;64015;49.392;15.582;2022-10-15T14:03:44;29.58;;;14.95;;
75437;SDS011;64015;49.392;15.582;2022-10-15T14:11:10;31.83;;;15.13;;
75437;SDS011;64015;49.392;15.582;2022-10-15T14:16:29;34.20;;;16.75;;
75437;SDS011;64015;49.392;15.582;2022-10-15T14:21:32;33.20;;;16.48;;
75437;SDS011;64015;49.392;15.582;2022-10-15T14:24:06;30.05;;;15.73;;
75437;SDS011;64015;49.392;15.582;2022-10-15T14:26:38;35.72;;;16.42;;
75437;SDS011;64015;49.392;15.582;2022-10-15T14:29:05;35.30;;;16.98;;
75437;SDS011;64015;49.392;15.582;2022-10-15T14:34:02;34.13;;;17.15;;
75437;SDS011;64015;49.392;15.582;2022-10-15T14:36:39;35.90;;;17.23;;
75437;SDS011;64015;49.392;15.582;2022-10-15T14:39:21;31.25;;;16.73;;
75437;SDS011;64015;49.392;15.582;2022-10-15T14:41:58;37.03;;;18.52;;
75437;SDS011;64015;49.392;15.582;2022-10-15T14:44:38;36.85;;;17.33;;
75437;SDS011;64015;49.392;15.582;2022-10-15T14:49:46;38.00;;;17.73;;
75437;SDS011;64015;49.392;15.582;2022-10-15T14:52:14;35.95;;;17.55;;
75437;SDS011;64015;49.392;15.582;2022-10-15T14:54:58;36.60;;;18.15;;
75437;SDS011;64015;49.392;15.582;2022-10-15T14:57:25;35.38;;;18.52;;
75437;SDS011;64015;49.392;15.582;2022-10-15T14:59:54;35.38;;;17.73;;
75437;SDS011;64015;49.392;15.582;2022-10-15T15:02:22;38.17;;;18.83;;
75437;SDS011;64015;49.392;15.582;2022-10-15T15:04:52;41.58;;;19.35;;
75437;SDS011;64015;49.392;15.582;2022-10-15T15:07:28;41.47;;;19.05;;
75437;SDS011;64015;49.392;15.582;2022-10-15T15:09:54;39.63;;;19.98;;
75437;SDS011;64015;49.392;15.582;2022-10-15T15:12:20;37.22;;;19.23;;
75437;SDS011;64015;49.392;15.582;2022-10-15T15:14:50;36.50;;;18.65;;
75437;SDS011;64015;49.392;15.582;2022-10-15T15:17:20;36.78;;;20.15;;
75437;SDS011;64015;49.392;15.582;2022-10-15T15:19:47;36.05;;;17.55;;
75437;SDS011;64015;49.392;15.582;2022-10-15T15:22:15;40.10;;;19.80;;
75437;SDS011;64015;49.392;15.582;2022-10-15T15:24:51;38.70;;;18.30;;
75437;SDS011;64015;49.392;15.582;2022-10-15T15:27:20;40.75;;;19.33;;
75437;SDS011;64015;49.392;15.582;2022-10-15T15:29:48;37.95;;;17.77;;
75437;SDS011;64015;49.392;15.582;2022-10-15T15:32:14;41.08;;;19.08;;
75437;SDS011;64015;49.392;15.582;2022-10-15T15:34:40;38.63;;;18.92;;
75437;SDS011;64015;49.392;15.582;2022-10-15T15:37:24;35.92;;;18.05;;
75437;SDS011;64015;49.392;15.582;2022-10-15T15:39:51;40.10;;;20.42;;
75437;SDS011;64015;49.392;15.582;2022-10-15T15:42:21;40.65;;;19.20;;
75437;SDS011;64015;49.392;15.582;2022-10-15T15:44:49;43.13;;;21.17;;
75437;SDS011;64015;49.392;15.582;2022-10-15T15:47:15;38.80;;;19.15;;
75437;SDS011;64015;49.392;15.582;2022-10-15T15:49:41;36.90;;;17.92;;
75437;SDS011;64015;49.392;15.582;2022-10-15T15:52:07;39.80;;;18.55;;
75437;SDS011;64015;49.392;15.582;2022-10-15T15:54:40;39.90;;;19.40;;
75437;SDS011;64015;49.392;15.582;2022-10-15T15:57:07;42.85;;;17.52;;
75437;SDS011;64015;49.392;15.582;2022-10-15T15:59:32;38.33;;;19.55;;
75437;SDS011;64015;49.392;15.582;2022-10-15T16:01:58;37.55;;;19.30;;
75437;SDS011;64015;49.392;15.582;2022-10-15T16:04:24;43.00;;;20.63;;
75437;SDS011;64015;49.392;15.582;2022-10-15T16:06:49;33.15;;;17.58;;
75437;SDS011;64015;49.392;15.582;2022-10-15T16:09:16;37.33;;;18.50;;
75437;SDS011;64015;49.392;15.582;2022-10-15T16:11:42;35.50;;;17.63;;
75437;SDS011;64015;49.392;15.582;2022-10-15T16:14:08;39.55;;;18.52;;
75437;SDS011;64015;49.392;15.582;2022-10-15T16:16:33;41.83;;;21.55;;
75437;SDS011;64015;49.392;15.582;2022-10-15T16:19:00;59.95;;;30.27;;
75437;SDS011;64015;49.392;15.582;2022-10-15T16:21:26;45.30;;;22.77;;
75437;SDS011;64015;49.392;15.582;2022-10-15T16:23:54;44.28;;;22.58;;
75437;SDS011;64015;49.392;15.582;2022-10-15T16:26:19;41.03;;;19.42;;
75437;SDS011;64015;49.392;15.582;2022-10-15T16:28:45;38.35;;;19.40;;
75437;SDS011;64015;49.392;15.582;2022-10-15T16:31:20;37.60;;;19.60;;
75437;SDS011;64015;49.392;15.582;2022-10-15T16:33:48;41.10;;;19.80;;
75437;SDS011;64015;49.392;15.582;2022-10-15T16:36:14;42.60;;;19.10;;
75437;SDS011;64015;49.392;15.582;2022-10-15T16:38:41;39.42;;;18.52;;
75437;SDS011;64015;49.392;15.582;2022-10-15T16:41:09;34.38;;;17.73;;
75437;SDS011;64015;49.392;15.582;2022-10-15T16:43:36;35.40;;;16.58;;
75437;SDS011;64015;49.392;15.582;2022-10-15T16:46:01;33.67;;;16.70;;